Time;durP1;ratioP1;P1;durP2;ratioP2;P2;SDS_P1;SDS_P2;PMS_P1;PMS_P2;Temp;Humidity;BMP_temperature;BMP_pressure;BME280_temperature;BME280_humidity;BME280_pressure;Samples;Min_cycle;Max_cycle;Signal;HPM_P1;HPM_P2
2022/07/07 00:02:14;;;;;;;4.25;2.30;;;;;15.70;96812.00;;;;8249138;28;20226;-66
2022/07/07 00:06:17;;;;;;;3.60;2.30;;;;;15.60;96811.00;;;;8246446;28;20821;-64
2022/07/07 00:10:20;;;;;;;4.20;2.55;;;;;15.60;96811.00;;;;8248164;28;20249;-65
2022/07/07 00:14:24;;;;;;;4.25;2.60;;;;;15.60;96803.00;;;;8251805;28;20216;-65
2022/07/07 00:18:29;;;;;;;2.78;2.40;;;;;15.50;96807.00;;;;8246718;28;20248;-65
2022/07/07 00:22:33;;;;;;;2.60;2.40;;;;;15.50;96801.00;;;;8248648;28;20202;-65
2022/07/07 00:26:36;;;;;;;4.05;2.20;;;;;15.50;96803.00;;;;8249079;28;20648;-66
2022/07/07 00:30:39;;;;;;;2.83;2.15;;;;;15.50;96795.00;;;;8244482;28;20287;-67
2022/07/07 00:34:44;;;;;;;4.20;2.60;;;;;15.50;96806.00;;;;8246887;28;20294;-65
2022/07/07 00:38:47;;;;;;;6.22;3.72;;;;;15.30;96800.00;;;;8247562;28;21045;-65
2022/07/07 00:42:50;;;;;;;4.45;3.03;;;;;15.20;96803.00;;;;8248355;28;20194;-64
2022/07/07 00:46:54;;;;;;;2.88;2.60;;;;;15.00;96797.00;;;;8246179;28;20209;-65
2022/07/07 00:50:59;;;;;;;3.38;3.03;;;;;15.00;96799.00;;;;8251802;28;20281;-66
2022/07/07 00:55:03;;;;;;;3.60;2.75;;;;;14.90;96797.00;;;;8251356;28;20211;-65
2022/07/07 00:59:07;;;;;;;6.68;3.05;;;;;14.80;96793.00;;;;8249642;28;20249;-66
2022/07/07 01:03:11;;;;;;;3.10;2.90;;;;;14.70;96792.00;;;;8250315;28;20254;-66
2022/07/07 01:07:16;;;;;;;8.38;2.58;;;;;14.50;96787.00;;;;8249543;28;20280;-66
2022/07/07 01:11:19;;;;;;;3.22;2.92;;;;;14.30;96793.00;;;;8248789;28;20591;-65
2022/07/07 01:15:22;;;;;;;3.75;3.30;;;;;14.30;96795.00;;;;8242925;28;20235;-65
2022/07/07 01:19:27;;;;;;;5.90;3.60;;;;;14.20;96796.00;;;;8249786;28;20206;-66
2022/07/07 01:23:31;;;;;;;5.47;2.97;;;;;14.20;96794.00;;;;8246255;28;20209;-65
2022/07/07 01:27:35;;;;;;;3.05;2.85;;;;;14.20;96785.00;;;;8248929;28;20200;-66
2022/07/07 01:31:38;;;;;;;3.70;2.95;;;;;14.20;96797.00;;;;8247628;28;20211;-66
2022/07/07 01:35:41;;;;;;;5.55;2.83;;;;;14.20;96790.00;;;;8246950;28;20287;-66
2022/07/07 01:39:46;;;;;;;3.25;2.83;;;;;14.20;96796.00;;;;8248759;28;20205;-66
2022/07/07 01:43:49;;;;;;;3.70;2.80;;;;;14.20;96790.00;;;;8246248;28;20211;-65
2022/07/07 01:47:52;;;;;;;3.80;2.85;;;;;14.30;96797.00;;;;8243540;28;20203;-65
2022/07/07 01:51:55;;;;;;;3.72;2.60;;;;;14.50;96787.00;;;;8242549;28;20211;-65
2022/07/07 01:56:04;;;;;;;6.65;2.97;;;;;14.60;96792.00;;;;8242179;28;20222;-65
2022/07/07 02:00:09;;;;;;;4.82;2.70;;;;;14.70;96782.00;;;;8239874;28;20292;-67
2022/07/07 02:04:12;;;;;;;5.95;2.90;;;;;14.80;96786.00;;;;8247632;28;20332;-66
2022/07/07 02:08:16;;;;;;;8.48;2.83;;;;;14.90;96783.00;;;;8247221;28;20217;-64
2022/07/07 02:12:20;;;;;;;2.95;2.75;;;;;15.00;96780.00;;;;8247953;28;20197;-66
2022/07/07 02:16:25;;;;;;;7.38;2.75;;;;;15.00;96780.00;;;;8238168;28;20653;-66
2022/07/07 02:20:28;;;;;;;3.53;2.83;;;;;15.00;96775.00;;;;8247561;28;20645;-65
2022/07/07 02:24:32;;;;;;;3.88;2.83;;;;;15.00;96777.00;;;;8237399;28;20201;-65
2022/07/07 02:28:36;;;;;;;4.13;2.97;;;;;14.90;96779.00;;;;8246212;28;20227;-67
2022/07/07 02:32:39;;;;;;;3.45;3.03;;;;;14.80;96769.00;;;;8242752;28;20228;-64
2022/07/07 02:36:42;;;;;;;4.72;3.20;;;;;14.90;96770.00;;;;8247601;28;20235;-65
2022/07/07 02:40:46;;;;;;;3.63;3.35;;;;;14.90;96759.00;;;;8241365;28;20286;-65
2022/07/07 02:44:51;;;;;;;3.42;3.13;;;;;14.90;96758.00;;;;8241673;28;20281;-65
2022/07/07 02:48:54;;;;;;;3.58;3.28;;;;;15.00;96757.00;;;;8239652;28;20890;-65
2022/07/07 02:52:57;;;;;;;3.40;3.10;;;;;15.10;96764.00;;;;8241910;28;20206;-64
2022/07/07 02:57:00;;;;;;;5.90;3.00;;;;;15.10;96757.00;;;;8235782;28;20225;-65
2022/07/07 03:01:05;;;;;;;3.45;3.15;;;;;15.10;96757.00;;;;8256823;23;20231;-66
2022/07/07 03:05:11;;;;;;;3.78;3.20;;;;;15.20;96753.00;;;;8274258;22;20552;-64
2022/07/07 03:09:14;;;;;;;3.95;3.65;;;;;15.20;96748.00;;;;8243759;28;20646;-65
2022/07/07 03:13:17;;;;;;;6.28;3.35;;;;;15.30;96755.00;;;;8241982;28;20240;-66
2022/07/07 03:17:21;;;;;;;6.70;3.42;;;;;15.30;96753.00;;;;8251441;28;20226;-67
2022/07/07 03:21:25;;;;;;;3.50;3.20;;;;;15.20;96762.00;;;;8252488;28;20227;-66
2022/07/07 03:25:28;;;;;;;3.67;3.22;;;;;15.20;96766.00;;;;8251410;28;20200;-65
2022/07/07 03:29:32;;;;;;;5.63;3.30;;;;;15.20;96759.00;;;;8247194;28;20592;-66
2022/07/07 03:33:36;;;;;;;4.40;3.90;;;;;15.30;96762.00;;;;8250312;28;20212;-67
2022/07/07 03:37:39;;;;;;;3.95;3.20;;;;;15.40;96753.00;;;;8245133;28;20226;-66
2022/07/07 03:41:43;;;;;;;4.07;3.42;;;;;15.40;96747.00;;;;8247599;28;20194;-65
2022/07/07 03:45:46;;;;;;;4.40;3.88;;;;;15.50;96747.00;;;;8249509;28;20205;-67
2022/07/07 03:49:51;;;;;;;6.13;3.42;;;;;15.50;96744.00;;;;8247761;28;20201;-67
2022/07/07 03:53:54;;;;;;;5.35;3.50;;;;;15.50;96745.00;;;;8242711;28;20204;-66
2022/07/07 03:57:57;;;;;;;3.60;3.30;;;;;15.50;96742.00;;;;8242703;28;20223;-65
2022/07/07 04:02:00;;;;;;;3.80;3.40;;;;;15.70;96745.00;;;;8247912;28;20262;-65
2022/07/07 04:06:06;;;;;;;5.28;3.17;;;;;15.70;96749.00;;;;8268901;28;20194;-65
2022/07/07 04:10:09;;;;;;;5.85;3.40;;;;;15.70;96755.00;;;;8265150;28;20213;-64
2022/07/07 04:14:13;;;;;;;4.72;3.20;;;;;15.80;96756.00;;;;8275482;28;20201;-65
2022/07/07 04:18:16;;;;;;;7.55;2.70;;;;;15.90;96750.00;;;;8261524;28;20225;-65
2022/07/07 04:22:21;;;;;;;5.18;2.70;;;;;16.00;96741.00;;;;8263275;28;20206;-66
2022/07/07 04:26:24;;;;;;;5.32;3.25;;;;;16.10;96741.00;;;;8265217;28;20667;-65
2022/07/07 04:30:28;;;;;;;3.05;2.85;;;;;16.30;96745.00;;;;8259605;28;20240;-65
2022/07/07 04:34:31;;;;;;;8.60;2.90;;;;;16.30;96748.00;;;;8257240;28;20206;-65
2022/07/07 04:38:36;;;;;;;4.25;2.47;;;;;16.30;96764.00;;;;8268123;28;20283;-64
2022/07/07 04:42:39;;;;;;;2.80;2.47;;;;;16.20;96760.00;;;;8261275;28;20201;-65
2022/07/07 04:46:42;;;;;;;2.90;2.40;;;;;16.20;96756.00;;;;8264393;28;20205;-66
2022/07/07 04:50:45;;;;;;;3.95;3.00;;;;;16.30;96746.00;;;;8261712;28;20292;-67
2022/07/07 04:54:50;;;;;;;2.63;2.42;;;;;16.20;96758.00;;;;8257836;28;20233;-66
2022/07/07 04:58:59;;;;;;;3.20;2.90;;;;;16.00;96749.00;;;;8263176;28;20238;-67
2022/07/07 05:03:02;;;;;;;4.50;3.00;;;;;16.10;96750.00;;;;8257289;28;20333;-67
2022/07/07 05:07:06;;;;;;;6.38;3.28;;;;;16.20;96752.00;;;;8271200;28;20293;-66
2022/07/07 05:11:10;;;;;;;5.18;3.22;;;;;16.30;96746.00;;;;8265588;28;20657;-66
2022/07/07 05:15:13;;;;;;;10.63;3.05;;;;;16.40;96747.00;;;;8257730;28;20194;-66
2022/07/07 05:19:17;;;;;;;5.63;3.17;;;;;16.50;96747.00;;;;8263708;28;20248;-66
2022/07/07 05:23:20;;;;;;;3.63;3.05;;;;;16.60;96752.00;;;;8256468;28;20289;-67
2022/07/07 05:27:24;;;;;;;4.70;3.22;;;;;16.70;96750.00;;;;8254780;28;20628;-66
2022/07/07 05:31:28;;;;;;;3.90;3.13;;;;;16.80;96753.00;;;;8256721;28;20207;-66
2022/07/07 05:35:31;;;;;;;5.05;3.00;;;;;16.90;96748.00;;;;8255204;28;20306;-66
2022/07/07 05:39:34;;;;;;;5.50;3.60;;;;;17.10;96740.00;;;;8255946;28;20662;-66
2022/07/07 05:43:39;;;;;;;3.85;3.00;;;;;17.20;96749.00;;;;8252279;28;20281;-67
2022/07/07 05:47:42;;;;;;;7.57;2.92;;;;;17.30;96743.00;;;;8253623;28;20203;-66
2022/07/07 05:51:45;;;;;;;4.80;3.30;;;;;17.40;96747.00;;;;8248941;28;20203;-66
2022/07/07 05:55:48;;;;;;;6.50;2.70;;;;;17.40;96743.00;;;;8245880;28;20213;-67
2022/07/07 05:59:53;;;;;;;4.75;2.72;;;;;17.50;96746.00;;;;8248497;28;20226;-66
2022/07/07 06:03:56;;;;;;;5.53;3.17;;;;;17.70;96742.00;;;;8254155;28;20244;-65
2022/07/07 06:07:59;;;;;;;4.45;3.20;;;;;17.90;96744.00;;;;8245284;28;20286;-66
2022/07/07 06:12:03;;;;;;;5.80;2.70;;;;;18.10;96747.00;;;;8245042;28;20613;-64
2022/07/07 06:16:08;;;;;;;3.78;2.58;;;;;18.30;96745.00;;;;8247850;28;20291;-65
2022/07/07 06:20:12;;;;;;;4.93;2.50;;;;;18.30;96753.00;;;;8249866;28;22147;-65
2022/07/07 06:24:15;;;;;;;4.03;2.85;;;;;18.30;96749.00;;;;8256894;28;20281;-65
2022/07/07 06:28:18;;;;;;;5.07;2.70;;;;;18.30;96742.00;;;;8252060;28;20282;-66
2022/07/07 06:32:31;;;;;;;3.22;2.30;;;;;18.40;96733.00;;;;8253263;28;20585;-66
2022/07/07 06:36:35;;;;;;;7.35;3.30;;;;;18.60;96736.00;;;;8246471;28;20298;-66
2022/07/07 06:40:38;;;;;;;2.80;2.60;;;;;18.60;96739.00;;;;8252620;28;20326;-66
2022/07/07 06:44:41;;;;;;;4.30;2.50;;;;;18.80;96740.00;;;;8248985;28;20206;-65
2022/07/07 06:48:45;;;;;;;4.00;2.83;;;;;19.10;96739.00;;;;8252526;28;20217;-63
2022/07/07 06:52:48;;;;;;;9.25;2.85;;;;;19.50;96748.00;;;;8249068;28;20211;-64
2022/07/07 06:56:52;;;;;;;7.45;2.60;;;;;19.70;96734.00;;;;8248823;28;20660;-64
2022/07/07 07:00:55;;;;;;;3.38;2.38;;;;;19.90;96743.00;;;;8248332;28;21567;-67
2022/07/07 07:05:00;;;;;;;4.63;2.35;;;;;20.30;96742.00;;;;8252384;28;20929;-66
2022/07/07 07:09:04;;;;;;;3.72;2.45;;;;;20.60;96745.00;;;;8260591;28;20718;-64
2022/07/07 07:13:07;;;;;;;2.50;2.30;;;;;20.80;96739.00;;;;8247677;28;20383;-64
2022/07/07 07:17:10;;;;;;;2.75;2.25;;;;;21.10;96741.00;;;;8252851;28;20222;-65
2022/07/07 07:21:15;;;;;;;4.38;2.50;;;;;21.20;96753.00;;;;8249267;28;20234;-66
2022/07/07 07:25:19;;;;;;;2.78;2.00;;;;;20.90;96752.00;;;;8246635;28;20281;-64
2022/07/07 07:29:23;;;;;;;3.45;2.50;;;;;20.90;96751.00;;;;8246978;28;20199;-65
2022/07/07 07:33:26;;;;;;;3.85;2.38;;;;;20.80;96750.00;;;;8249539;28;20203;-67
2022/07/07 07:37:32;;;;;;;5.72;2.60;;;;;20.60;96758.00;;;;8252667;28;20274;-65
2022/07/07 07:41:35;;;;;;;5.15;2.17;;;;;20.40;96760.00;;;;8249570;28;20237;-67
2022/07/07 07:45:39;;;;;;;2.25;2.05;;;;;20.40;96758.00;;;;8251705;28;20218;-67
2022/07/07 07:49:42;;;;;;;4.05;2.50;;;;;20.30;96751.00;;;;8250351;28;20545;-66
2022/07/07 07:53:47;;;;;;;3.83;2.20;;;;;20.30;96746.00;;;;8243601;28;20202;-67
2022/07/07 07:57:50;;;;;;;5.68;2.22;;;;;20.30;96736.00;;;;8244490;28;20286;-65
2022/07/07 08:01:53;;;;;;;9.55;2.30;;;;;20.30;96750.00;;;;8250502;28;20295;-68
2022/07/07 08:05:57;;;;;;;3.45;2.40;;;;;20.30;96760.00;;;;8249331;28;20199;-65
2022/07/07 08:10:01;;;;;;;5.30;3.00;;;;;20.20;96760.00;;;;8250859;28;20203;-65
2022/07/07 08:14:04;;;;;;;2.55;2.35;;;;;20.20;96751.00;;;;8242276;28;20210;-66
2022/07/07 08:18:08;;;;;;;2.85;2.50;;;;;20.40;96742.00;;;;8241912;28;20206;-67
2022/07/07 08:22:12;;;;;;;8.13;2.85;;;;;20.50;96748.00;;;;8245015;28;20209;-67
2022/07/07 08:26:16;;;;;;;4.28;2.40;;;;;20.60;96756.00;;;;8257410;28;20198;-67
2022/07/07 08:30:19;;;;;;;5.53;2.53;;;;;20.40;96760.00;;;;8250397;28;20209;-66
2022/07/07 08:34:23;;;;;;;3.55;2.53;;;;;20.20;96752.00;;;;8252956;28;20253;-66
2022/07/07 08:38:26;;;;;;;5.03;2.72;;;;;19.70;96757.00;;;;8250295;28;20352;-67
2022/07/07 08:42:31;;;;;;;8.40;3.17;;;;;18.90;96754.00;;;;8252630;28;20206;-67
2022/07/07 08:46:34;;;;;;;3.60;3.30;;;;;18.40;96762.00;;;;8254088;28;20195;-67
2022/07/07 08:50:39;;;;;;;4.38;3.08;;;;;18.30;96758.00;;;;8246700;28;20203;-69
2022/07/07 08:54:43;;;;;;;5.57;3.25;;;;;18.40;96754.00;;;;8252409;28;20282;-66
2022/07/07 08:58:49;;;;;;;7.43;3.20;;;;;18.80;96745.00;;;;8256479;28;20310;-67
2022/07/07 09:03:07;;;;;;;3.85;2.90;;;;;19.20;96761.00;;;;8263405;28;20283;-64
2022/07/07 09:07:12;;;;;;;6.03;3.03;;;;;19.50;96750.00;;;;8269763;28;20981;-65
2022/07/07 09:11:16;;;;;;;3.72;2.58;;;;;19.80;96759.00;;;;8259092;28;20723;-66
2022/07/07 09:15:21;;;;;;;5.53;2.78;;;;;19.80;96765.00;;;;8266343;28;20677;-67
2022/07/07 09:19:24;;;;;;;6.72;3.55;;;;;19.50;96770.00;;;;8269874;28;20230;-66
2022/07/07 09:23:27;;;;;;;5.68;3.20;;;;;18.70;96770.00;;;;8265516;28;20199;-66
2022/07/07 09:27:31;;;;;;;6.00;3.67;;;;;18.20;96774.00;;;;8263224;28;20254;-64
2022/07/07 09:31:57;;;;;;;6.72;3.70;;;;;17.80;96771.00;;;;8263085;28;20833;-65
2022/07/07 09:40:21;;;;;;;6.57;3.88;;;;;17.40;96775.00;;;;8263008;28;20226;-65
2022/07/07 09:44:25;;;;;;;7.22;3.60;;;;;17.30;96775.00;;;;8259771;28;20278;-65
2022/07/07 09:48:30;;;;;;;5.78;3.60;;;;;17.10;96781.00;;;;8268062;28;20730;-65
2022/07/07 09:52:35;;;;;;;8.48;4.18;;;;;16.80;96782.00;;;;8255118;28;20211;-67
2022/07/07 09:56:40;;;;;;;6.80;3.78;;;;;16.40;96781.00;;;;8260738;28;20199;-70
2022/07/07 10:00:44;;;;;;;11.05;6.15;;;;;16.30;96795.00;;;;8259001;28;20233;-66
2022/07/07 10:04:50;;;;;;;10.15;5.38;;;;;16.50;96793.00;;;;8253819;28;20289;-64
2022/07/07 10:08:57;;;;;;;5.47;4.55;;;;;16.40;96786.00;;;;8251649;28;20579;-64
2022/07/07 10:13:03;;;;;;;5.45;4.60;;;;;16.30;96794.00;;;;8254190;28;20204;-65
2022/07/07 10:17:06;;;;;;;10.20;5.25;;;;;16.10;96791.00;;;;8256178;28;20206;-64
2022/07/07 10:21:11;;;;;;;9.60;4.65;;;;;16.00;96788.00;;;;8248060;28;20245;-65
2022/07/07 10:25:15;;;;;;;7.20;4.72;;;;;16.00;96784.00;;;;8248888;28;20216;-63
2022/07/07 10:29:36;;;;;;;6.70;4.85;;;;;16.10;96793.00;;;;8250602;28;20213;-64
2022/07/07 10:33:39;;;;;;;8.15;4.72;;;;;16.10;96790.00;;;;8254261;28;20217;-65
2022/07/07 10:37:45;;;;;;;6.70;4.45;;;;;16.20;96795.00;;;;8251045;28;20894;-65
2022/07/07 10:41:58;;;;;;;10.10;4.72;;;;;16.30;96795.00;;;;8258627;28;20256;-64
2022/07/07 10:46:02;;;;;;;10.88;4.68;;;;;16.50;96793.00;;;;8253309;28;20208;-64
2022/07/07 10:50:23;;;;;;;5.70;4.78;;;;;16.60;96794.00;;;;8256048;28;20690;-64
2022/07/07 10:54:36;;;;;;;6.72;4.75;;;;;16.80;96798.00;;;;8255501;28;20214;-65
2022/07/07 10:59:00;;;;;;;4.38;3.97;;;;;16.80;96796.00;;;;8247872;28;20226;-63
2022/07/07 11:03:13;;;;;;;6.90;4.13;;;;;16.60;96800.00;;;;8251492;28;20235;-64
2022/07/07 11:07:18;;;;;;;7.90;4.80;;;;;16.50;96795.00;;;;8240710;28;20208;-64
2022/07/07 11:11:22;;;;;;;10.30;5.00;;;;;16.50;96800.00;;;;8242581;28;20621;-64
2022/07/07 11:15:35;;;;;;;4.50;4.10;;;;;16.60;96797.00;;;;8240705;28;20285;-64
2022/07/07 11:19:40;;;;;;;6.97;4.35;;;;;16.70;96806.00;;;;8252409;28;20637;-64
2022/07/07 11:23:47;;;;;;;8.13;4.70;;;;;16.80;96803.00;;;;8253306;28;20986;-64
2022/07/07 11:27:52;;;;;;;8.43;4.43;;;;;17.00;96794.00;;;;8249663;28;20234;-64
2022/07/07 11:32:07;;;;;;;6.05;4.28;;;;;17.40;96793.00;;;;8246048;28;20205;-64
2022/07/07 11:36:16;;;;;;;5.93;4.57;;;;;17.50;96790.00;;;;8245250;28;20207;-65
2022/07/07 11:40:26;;;;;;;8.30;4.10;;;;;17.50;96792.00;;;;8246168;28;20648;-64
2022/07/07 11:44:30;;;;;;;7.93;4.32;;;;;17.50;96790.00;;;;8247395;28;20191;-64
2022/07/07 11:48:35;;;;;;;9.23;4.25;;;;;17.20;96793.00;;;;8250870;28;20215;-64
2022/07/07 11:52:38;;;;;;;5.82;4.63;;;;;17.20;96785.00;;;;8236713;28;20278;-66
2022/07/07 11:56:42;;;;;;;7.70;4.28;;;;;17.60;96793.00;;;;8239854;28;20285;-64
2022/07/07 12:00:46;;;;;;;9.13;4.72;;;;;18.00;96778.00;;;;8251611;28;20972;-64
2022/07/07 12:04:53;;;;;;;6.18;4.30;;;;;18.50;96777.00;;;;8253097;28;20230;-65
2022/07/07 12:08:57;;;;;;;5.88;4.32;;;;;18.90;96775.00;;;;8253541;28;20199;-64
2022/07/07 12:13:02;;;;;;;6.95;4.40;;;;;19.00;96779.00;;;;8251456;28;20226;-64
2022/07/07 12:17:07;;;;;;;5.95;3.85;;;;;19.30;96783.00;;;;8253926;28;20281;-64
2022/07/07 12:21:11;;;;;;;4.15;3.75;;;;;19.30;96775.00;;;;8251523;28;20239;-64
2022/07/07 12:25:15;;;;;;;7.00;3.80;;;;;19.00;96787.00;;;;8252364;28;20567;-65
2022/07/07 12:29:58;;;;;;;7.90;4.53;;;;;18.90;96778.00;;;;8250898;28;20191;-65
2022/07/07 12:34:11;;;;;;;9.35;4.60;;;;;18.70;96772.00;;;;8256415;28;20298;-67
2022/07/07 12:38:14;;;;;;;5.30;4.20;;;;;18.60;96775.00;;;;8264319;28;20286;-63
2022/07/07 12:42:25;;;;;;;7.78;4.43;;;;;18.50;96753.00;;;;8256455;28;20229;-65
2022/07/07 12:46:36;;;;;;;6.35;4.78;;;;;18.80;96755.00;;;;8258325;28;20191;-64
2022/07/07 12:50:41;;;;;;;8.23;4.28;;;;;19.50;96758.00;;;;8254222;28;20277;-63
2022/07/07 12:54:44;;;;;;;6.05;3.88;;;;;20.20;96755.00;;;;8259620;28;20286;-63
2022/07/07 12:58:50;;;;;;;7.45;4.28;;;;;21.30;96744.00;;;;8256789;28;20631;-64
2022/07/07 13:02:53;;;;;;;5.38;4.15;;;;;22.10;96751.00;;;;8261046;28;20233;-64
2022/07/07 13:06:58;;;;;;;6.50;3.90;;;;;23.10;96735.00;;;;8263831;28;20213;-64
2022/07/07 13:11:03;;;;;;;7.22;3.58;;;;;23.70;96747.00;;;;8263250;28;20628;-64
2022/07/07 13:15:08;;;;;;;8.13;4.47;;;;;23.70;96755.00;;;;8266984;28;20206;-64
2022/07/07 13:19:12;;;;;;;8.55;4.18;;;;;23.40;96751.00;;;;8271605;28;20206;-64
2022/07/07 13:23:16;;;;;;;12.75;5.07;;;;;22.90;96755.00;;;;8264865;28;20226;-64
2022/07/07 13:27:19;;;;;;;6.00;4.68;;;;;22.30;96754.00;;;;8255775;28;20733;-64
2022/07/07 13:31:23;;;;;;;9.93;5.25;;;;;22.00;96745.00;;;;8255091;28;20231;-63
2022/07/07 13:35:26;;;;;;;10.55;6.35;;;;;22.50;96744.00;;;;8256519;28;20190;-63
2022/07/07 13:39:31;;;;;;;16.88;6.93;;;;;23.00;96742.00;;;;8269606;28;20194;-65
2022/07/07 13:43:34;;;;;;;7.47;4.32;;;;;23.30;96755.00;;;;8256341;28;20222;-65
2022/07/07 13:47:39;;;;;;;5.32;3.60;;;;;23.40;96744.00;;;;8256411;28;20207;-65
2022/07/07 13:51:42;;;;;;;5.93;4.13;;;;;22.90;96748.00;;;;8256630;28;20286;-63
2022/07/07 13:55:47;;;;;;;7.88;5.00;;;;;22.10;96759.00;;;;8250766;28;20250;-62
2022/07/07 13:59:51;;;;;;;18.00;5.75;;;;;20.80;96754.00;;;;8256932;28;20203;-65
2022/07/07 14:03:54;;;;;;;8.65;5.60;;;;;20.10;96754.00;;;;8250959;28;20266;-64
2022/07/07 14:07:57;;;;;;;9.50;6.30;;;;;19.90;96760.00;;;;8248831;28;20210;-64
2022/07/07 14:12:16;;;;;;;10.43;5.93;;;;;19.70;96766.00;;;;8250128;28;20668;-65
2022/07/07 14:16:20;;;;;;;9.30;5.65;;;;;19.50;96758.00;;;;8248975;28;20732;-65
2022/07/07 14:20:24;;;;;;;6.00;5.40;;;;;19.30;96759.00;;;;8249445;28;20230;-61
2022/07/07 14:24:27;;;;;;;9.65;6.35;;;;;19.00;96760.00;;;;8248498;28;21685;-64
2022/07/07 14:28:32;;;;;;;12.80;6.03;;;;;19.00;96759.00;;;;8245004;28;20200;-63
2022/07/07 14:32:37;;;;;;;8.30;5.25;;;;;19.20;96766.00;;;;8254276;28;20226;-64
2022/07/07 14:36:40;;;;;;;8.63;5.90;;;;;19.20;96759.00;;;;8246986;28;20199;-63
2022/07/07 14:40:43;;;;;;;10.23;5.60;;;;;19.00;96751.00;;;;8253862;28;20310;-63
2022/07/07 14:44:49;;;;;;;5.53;4.95;;;;;19.00;96759.00;;;;8249510;28;20198;-65
2022/07/07 14:48:52;;;;;;;9.50;5.85;;;;;18.80;96752.00;;;;8251223;28;20661;-67
2022/07/07 14:52:55;;;;;;;6.60;5.80;;;;;18.80;96745.00;;;;8247568;28;20602;-67
2022/07/07 14:56:58;;;;;;;9.15;5.53;;;;;18.70;96741.00;;;;8252435;28;20205;-67
2022/07/07 15:01:03;;;;;;;6.63;5.97;;;;;18.60;96741.00;;;;8251289;28;20316;-68
2022/07/07 15:05:07;;;;;;;7.97;5.60;;;;;18.60;96739.00;;;;8258209;28;20230;-67
2022/07/07 15:09:10;;;;;;;8.43;6.63;;;;;18.70;96728.00;;;;8266284;28;20198;-67
2022/07/07 15:13:14;;;;;;;6.47;5.88;;;;;19.00;96732.00;;;;8264933;28;20202;-65
2022/07/07 15:17:28;;;;;;;8.20;5.43;;;;;19.20;96721.00;;;;8262370;28;20249;-64
2022/07/07 15:21:32;;;;;;;7.55;4.57;;;;;19.30;96715.00;;;;8260465;28;20232;-64
2022/07/07 15:25:37;;;;;;;4.15;3.70;;;;;19.60;96724.00;;;;8265146;28;20199;-64
2022/07/07 15:29:40;;;;;;;3.67;3.38;;;;;20.00;96720.00;;;;8251306;28;20290;-66
2022/07/07 15:33:45;;;;;;;3.42;3.13;;;;;20.00;96731.00;;;;8254340;28;20282;-65
2022/07/07 15:37:49;;;;;;;2.90;2.70;;;;;20.50;96733.00;;;;8261386;28;20195;-63
2022/07/07 15:41:52;;;;;;;2.58;2.40;;;;;21.20;96728.00;;;;8263575;28;20882;-64
2022/07/07 15:46:02;;;;;;;3.20;2.95;;;;;21.10;96731.00;;;;8254038;28;21870;-63
2022/07/07 15:50:08;;;;;;;3.42;3.13;;;;;20.70;96733.00;;;;8266704;28;20241;-64
2022/07/07 15:54:11;;;;;;;3.72;3.33;;;;;20.30;96730.00;;;;8260724;28;20536;-63
2022/07/07 15:58:15;;;;;;;3.95;3.05;;;;;20.20;96730.00;;;;8263479;28;20194;-63
2022/07/07 16:02:18;;;;;;;3.67;3.38;;;;;20.20;96733.00;;;;8248270;28;20273;-64
2022/07/07 16:06:22;;;;;;;3.90;3.40;;;;;20.10;96735.00;;;;8251898;28;20286;-62
2022/07/07 16:10:26;;;;;;;4.75;3.65;;;;;19.90;96733.00;;;;8244704;28;20278;-63
2022/07/07 16:14:29;;;;;;;5.13;3.58;;;;;19.90;96729.00;;;;8255858;28;20286;-63
2022/07/07 16:18:32;;;;;;;5.53;4.32;;;;;19.80;96734.00;;;;8246036;28;20195;-63
2022/07/07 16:22:38;;;;;;;5.10;4.60;;;;;19.80;96743.00;;;;8243429;28;20237;-63
2022/07/07 16:26:42;;;;;;;6.20;4.72;;;;;19.70;96744.00;;;;8249240;28;20191;-63
2022/07/07 16:30:45;;;;;;;9.32;4.70;;;;;19.50;96747.00;;;;8245805;28;20199;-64
2022/07/07 16:34:49;;;;;;;6.15;5.60;;;;;18.90;96746.00;;;;8252283;28;20549;-66
2022/07/07 16:38:53;;;;;;;7.93;5.75;;;;;18.60;96754.00;;;;8251938;28;20289;-65
2022/07/07 16:42:56;;;;;;;6.00;5.35;;;;;18.60;96760.00;;;;8253012;28;20861;-65
2022/07/07 16:46:59;;;;;;;5.78;5.18;;;;;18.60;96751.00;;;;8252226;28;20233;-63
2022/07/07 16:51:03;;;;;;;5.85;5.32;;;;;18.60;96758.00;;;;8256810;28;20310;-63
2022/07/07 16:55:08;;;;;;;5.95;5.35;;;;;18.70;96758.00;;;;8250054;28;20194;-64
2022/07/07 16:59:11;;;;;;;6.63;5.40;;;;;18.70;96765.00;;;;8253117;28;20202;-65
2022/07/07 17:03:15;;;;;;;5.88;5.03;;;;;18.50;96754.00;;;;8249252;28;20269;-65
2022/07/07 17:07:20;;;;;;;4.82;4.35;;;;;18.40;96765.00;;;;8248085;28;20230;-66
2022/07/07 17:11:24;;;;;;;5.57;3.92;;;;;18.30;96767.00;;;;8252700;28;20260;-65
2022/07/07 17:15:28;;;;;;;3.70;3.40;;;;;18.10;96762.00;;;;8248778;28;20232;-65
2022/07/07 17:19:31;;;;;;;3.40;2.85;;;;;18.10;96765.00;;;;8255149;28;20230;-65
2022/07/07 17:23:34;;;;;;;2.95;2.75;;;;;18.00;96764.00;;;;8255974;28;20226;-66
2022/07/07 17:27:39;;;;;;;3.40;3.10;;;;;18.00;96774.00;;;;8252290;28;20293;-65
2022/07/07 17:31:42;;;;;;;3.22;3.00;;;;;18.00;96786.00;;;;8258340;28;20289;-65
2022/07/07 17:35:48;;;;;;;7.15;2.47;;;;;18.00;96775.00;;;;8259275;28;20230;-66
2022/07/07 17:39:53;;;;;;;3.13;2.85;;;;;18.10;96777.00;;;;8252182;28;20293;-65
2022/07/07 17:43:58;;;;;;;3.72;2.72;;;;;18.50;96782.00;;;;8247905;28;20232;-64
2022/07/07 17:48:01;;;;;;;2.67;2.40;;;;;19.20;96787.00;;;;8250763;28;20209;-65
2022/07/07 17:52:05;;;;;;;2.80;2.60;;;;;19.10;96786.00;;;;8254201;28;20190;-65
2022/07/07 17:56:08;;;;;;;2.80;2.60;;;;;19.00;96798.00;;;;8250468;28;20207;-65
2022/07/07 18:00:14;;;;;;;2.97;2.78;;;;;18.90;96803.00;;;;8255578;28;20195;-65
2022/07/07 18:04:17;;;;;;;3.15;2.95;;;;;18.70;96799.00;;;;8250200;28;20239;-65
2022/07/07 18:08:20;;;;;;;3.10;2.80;;;;;18.60;96811.00;;;;8255246;28;20191;-65
2022/07/07 18:12:23;;;;;;;3.20;2.92;;;;;18.50;96804.00;;;;8257581;28;20207;-64
2022/07/07 18:16:28;;;;;;;3.00;2.80;;;;;18.30;96802.00;;;;8244192;28;20204;-63
2022/07/07 18:20:31;;;;;;;3.22;2.90;;;;;18.30;96810.00;;;;8253160;28;20253;-65
2022/07/07 18:24:34;;;;;;;3.50;3.15;;;;;18.20;96811.00;;;;8253592;28;20232;-64
2022/07/07 18:28:38;;;;;;;6.55;3.58;;;;;18.20;96814.00;;;;8248777;28;20199;-63
2022/07/07 18:32:43;;;;;;;4.40;3.72;;;;;18.20;96815.00;;;;8249746;28;20400;-63
2022/07/07 18:36:46;;;;;;;3.92;3.63;;;;;18.10;96821.00;;;;8250461;28;20209;-63
2022/07/07 18:40:49;;;;;;;3.95;3.53;;;;;18.10;96821.00;;;;8251940;28;20713;-64
2022/07/07 18:44:52;;;;;;;5.80;3.95;;;;;18.10;96824.00;;;;8253552;28;22274;-66
2022/07/07 18:48:57;;;;;;;5.22;4.32;;;;;17.80;96833.00;;;;8248021;28;20226;-67
2022/07/07 18:53:00;;;;;;;8.95;5.20;;;;;17.50;96839.00;;;;8246419;28;20653;-69
2022/07/07 18:57:04;;;;;;;7.13;5.38;;;;;17.30;96842.00;;;;8252082;28;20222;-71
2022/07/07 19:01:07;;;;;;;6.28;5.25;;;;;17.10;96839.00;;;;8252209;28;20732;-69
2022/07/07 19:05:12;;;;;;;9.50;5.10;;;;;17.00;96848.00;;;;8251863;28;20249;-69
2022/07/07 19:09:16;;;;;;;7.63;5.65;;;;;17.00;96850.00;;;;8252855;28;20256;-68
2022/07/07 19:13:20;;;;;;;11.63;5.78;;;;;16.90;96863.00;;;;8247441;28;20195;-68
2022/07/07 19:17:23;;;;;;;6.13;5.22;;;;;16.90;96871.00;;;;8248319;28;20195;-69
2022/07/07 19:21:28;;;;;;;5.07;4.57;;;;;16.80;96877.00;;;;8246781;28;20815;-68
2022/07/07 19:25:31;;;;;;;5.82;3.90;;;;;16.80;96883.00;;;;8246978;28;20714;-68
2022/07/07 19:29:35;;;;;;;4.47;3.67;;;;;16.70;96902.00;;;;8247498;28;20217;-70
2022/07/07 19:33:39;;;;;;;6.70;3.30;;;;;16.60;96906.00;;;;8249183;28;20663;-69
2022/07/07 19:37:43;;;;;;;3.08;2.47;;;;;16.50;96899.00;;;;8245297;28;20303;-68
2022/07/07 19:41:47;;;;;;;3.28;2.80;;;;;16.40;96906.00;;;;8250859;28;20281;-69
2022/07/07 19:45:51;;;;;;;3.83;3.13;;;;;16.40;96913.00;;;;8244610;28;20223;-69
2022/07/07 19:49:54;;;;;;;3.78;3.30;;;;;16.30;96907.00;;;;8242790;28;20206;-70
2022/07/07 19:53:59;;;;;;;3.90;3.38;;;;;16.30;96913.00;;;;8242925;28;20302;-70
2022/07/07 19:58:02;;;;;;;3.35;3.05;;;;;16.30;96920.00;;;;8245835;28;20658;-69
2022/07/07 20:02:05;;;;;;;4.65;3.72;;;;;16.30;96923.00;;;;8249376;28;20671;-71
2022/07/07 20:06:09;;;;;;;5.25;3.58;;;;;16.30;96925.00;;;;8253149;28;20598;-70
2022/07/07 20:10:13;;;;;;;4.65;4.22;;;;;16.30;96928.00;;;;8252345;28;20679;-70
2022/07/07 20:14:17;;;;;;;6.13;4.40;;;;;16.30;96934.00;;;;8245273;28;20205;-69
2022/07/07 20:18:26;;;;;;;8.27;4.78;;;;;16.40;96932.00;;;;8245502;28;20229;-71
2022/07/07 20:22:30;;;;;;;7.20;5.13;;;;;16.40;96935.00;;;;8243939;28;20929;-69
2022/07/07 20:26:35;;;;;;;10.50;5.82;;;;;16.40;96941.00;;;;8245253;28;20195;-68